Terminal Aerodrome Forecast
Issued by NWS

Home | Current Version | Previous Version | Text Only | Print | Product List | Glossary On
Versions: 1 2 3 4 5 6 7 8 9 10 11 12 13 14 15
000
FTUS45 KTFX 210149 AAA
TAFGTF
TAF AMD
KGTF 210149Z 2102/2124 23010KT P6SM SCT050
     FM210400 22010KT P6SM VCSH BKN050 WS020/24035KT
     FM210700 22015KT P6SM SCT050 BKN200
     FM211400 21010KT P6SM -SHSNRA SCT030 BKN060=

USA.gov is the U.S. government's official web portal to all federal, state and local government web resources and services.